Time;durP1;ratioP1;P1;durP2;ratioP2;P2;SDS_P1;SDS_P2;PMS_P1;PMS_P2;Temp;Humidity;BMP_temperature;BMP_pressure;BME280_temperature;BME280_humidity;BME280_pressure;Samples;Min_cycle;Max_cycle;Signal;HPM_P1;HPM_P2
2021/09/23 00:00:53;;;;;;;3.47;1.88;;;21.20;53.50;;;;;;5013462;28;20026;-61
2021/09/23 00:05:55;;;;;;;5.35;2.13;;;21.20;53.50;;;;;;5013724;28;20022;-61
2021/09/23 00:08:21;;;;;;;4.95;2.17;;;21.20;53.50;;;;;;5013343;28;20037;-61
2021/09/23 00:10:46;;;;;;;5.53;2.60;;;21.20;53.50;;;;;;5013301;28;20026;-61
2021/09/23 00:13:13;;;;;;;5.13;2.40;;;21.10;53.50;;;;;;5013271;28;20473;-61
2021/09/23 00:15:40;;;;;;;5.50;2.47;;;21.10;53.60;;;;;;5013222;28;20437;-61
2021/09/23 00:18:11;;;;;;;5.57;2.63;;;21.10;53.50;;;;;;5013242;28;20014;-61
2021/09/23 00:20:39;;;;;;;5.13;2.72;;;21.10;53.50;;;;;;5013302;28;20104;-61
2021/09/23 00:23:05;;;;;;;3.83;2.15;;;21.10;53.60;;;;;;5013164;28;20470;-61
2021/09/23 00:25:31;;;;;;;5.72;2.55;;;21.10;53.50;;;;;;5013427;28;20029;-61
2021/09/23 00:27:57;;;;;;;5.50;2.47;;;21.10;53.50;;;;;;5013133;28;20118;-61
2021/09/23 00:30:24;;;;;;;6.20;2.33;;;21.10;53.50;;;;;;5013157;28;20029;-61
2021/09/23 00:32:50;;;;;;;5.13;2.40;;;21.10;53.60;;;;;;5013029;28;20080;-61
2021/09/23 00:35:17;;;;;;;5.40;2.40;;;21.10;53.60;;;;;;5013368;28;20022;-61
2021/09/23 00:37:42;;;;;;;4.78;2.65;;;21.00;53.60;;;;;;5013070;28;20033;-61
2021/09/23 00:40:09;;;;;;;6.28;2.83;;;21.10;53.50;;;;;;5013286;28;20385;-61
2021/09/23 00:42:36;;;;;;;6.50;2.92;;;21.10;53.60;;;;;;5012909;28;20508;-61
2021/09/23 00:45:04;;;;;;;5.90;2.80;;;21.10;53.50;;;;;;5012970;28;20057;-62
2021/09/23 00:47:29;;;;;;;6.28;3.05;;;21.00;53.60;;;;;;5013017;28;20046;-61
2021/09/23 00:49:55;;;;;;;4.70;2.30;;;21.00;53.60;;;;;;5012960;28;20030;-61
2021/09/23 00:52:24;;;;;;;6.95;2.70;;;21.00;53.60;;;;;;5012936;28;20401;-61
2021/09/23 00:54:50;;;;;;;4.50;2.40;;;21.00;53.60;;;;;;5012915;28;20014;-61
2021/09/23 00:57:19;;;;;;;5.78;3.00;;;21.00;53.60;;;;;;5012880;28;20156;-61
2021/09/23 00:59:49;;;;;;;6.72;2.88;;;21.00;53.60;;;;;;5012809;28;20064;-61
2021/09/23 01:02:15;;;;;;;5.65;2.65;;;21.00;53.60;;;;;;5013055;28;20025;-61
2021/09/23 01:04:45;;;;;;;5.45;3.13;;;21.00;53.60;;;;;;5012842;28;20036;-61
2021/09/23 01:07:16;;;;;;;6.07;2.78;;;21.00;53.60;;;;;;5012826;28;20026;-61
2021/09/23 01:09:53;;;;;;;5.68;2.65;;;21.00;53.70;;;;;;5012745;28;20030;-61
2021/09/23 01:12:21;;;;;;;6.35;2.83;;;21.00;53.60;;;;;;5012777;28;20026;-61
2021/09/23 01:14:48;;;;;;;6.30;3.22;;;21.00;53.60;;;;;;5013285;28;20025;-61
2021/09/23 01:17:14;;;;;;;6.57;3.10;;;21.00;53.70;;;;;;5012699;28;20105;-61
2021/09/23 01:19:42;;;;;;;4.88;2.58;;;21.00;53.60;;;;;;5012720;28;20014;-61
2021/09/23 01:22:08;;;;;;;7.50;3.33;;;21.00;53.70;;;;;;5012572;28;20038;-61
2021/09/23 01:24:36;;;;;;;6.85;3.47;;;21.00;53.60;;;;;;5011289;28;20041;-61
2021/09/23 01:27:02;;;;;;;7.18;3.25;;;20.90;53.70;;;;;;5012743;28;20112;-61
2021/09/23 01:29:28;;;;;;;5.30;2.75;;;20.90;53.70;;;;;;5015036;28;20125;-61
2021/09/23 01:31:54;;;;;;;6.25;3.20;;;20.90;53.70;;;;;;5016137;28;20025;-61
2021/09/23 01:34:19;;;;;;;6.65;2.85;;;20.90;53.70;;;;;;5016129;28;20068;-61
2021/09/23 01:36:45;;;;;;;5.70;2.60;;;20.90;53.70;;;;;;5016013;28;20022;-61
2021/09/23 01:39:20;;;;;;;5.40;2.88;;;20.90;53.70;;;;;;5016080;28;20470;-61
2021/09/23 01:41:45;;;;;;;6.32;2.92;;;20.90;53.80;;;;;;5015940;28;20029;-61
2021/09/23 01:44:11;;;;;;;5.53;2.55;;;20.90;53.70;;;;;;5015950;28;20056;-62
2021/09/23 01:46:36;;;;;;;5.43;2.75;;;20.80;53.80;;;;;;5014658;28;20473;-61
2021/09/23 01:49:02;;;;;;;6.13;3.17;;;20.80;53.80;;;;;;5015674;28;20401;-61
2021/09/23 01:51:28;;;;;;;5.32;2.55;;;20.80;53.80;;;;;;5015732;28;20030;-60
2021/09/23 01:53:54;;;;;;;6.20;2.80;;;20.80;53.70;;;;;;5015765;28;20026;-61
2021/09/23 01:56:19;;;;;;;5.63;2.85;;;20.90;53.70;;;;;;5015669;28;20477;-61
2021/09/23 01:58:46;;;;;;;5.45;2.83;;;20.80;53.80;;;;;;5015805;28;20025;-61
2021/09/23 02:01:12;;;;;;;6.28;3.13;;;20.80;53.80;;;;;;5015594;28;20093;-61
2021/09/23 02:03:37;;;;;;;6.38;2.90;;;20.80;53.70;;;;;;5015611;28;20169;-61
2021/09/23 02:06:03;;;;;;;8.65;3.28;;;20.80;53.70;;;;;;5014228;28;20025;-61
2021/09/23 02:08:28;;;;;;;5.20;2.85;;;20.80;53.80;;;;;;5015486;28;20034;-61
2021/09/23 02:10:54;;;;;;;5.15;2.88;;;20.80;53.70;;;;;;5014225;28;20100;-62
2021/09/23 02:13:19;;;;;;;5.90;2.72;;;20.80;53.80;;;;;;5015382;28;20026;-61
2021/09/23 02:15:45;;;;;;;7.72;3.47;;;20.80;53.70;;;;;;5015704;28;20484;-61
2021/09/23 02:18:11;;;;;;;6.15;2.83;;;20.80;53.80;;;;;;5015828;28;20045;-61
2021/09/23 02:20:36;;;;;;;5.82;2.90;;;20.80;53.80;;;;;;5015230;28;20053;-61
2021/09/23 02:23:02;;;;;;;6.25;3.20;;;20.80;53.70;;;;;;5015109;28;20044;-61
2021/09/23 02:25:27;;;;;;;4.85;2.75;;;20.80;53.70;;;;;;5015146;28;20024;-61
2021/09/23 02:27:53;;;;;;;5.50;2.80;;;20.70;53.80;;;;;;5015136;28;20026;-61
2021/09/23 02:30:18;;;;;;;5.50;2.97;;;20.80;53.80;;;;;;5015313;28;20022;-62
2021/09/23 02:32:44;;;;;;;6.65;3.10;;;20.80;53.80;;;;;;5015007;28;20108;-61
2021/09/23 02:35:10;;;;;;;6.65;3.15;;;20.70;53.80;;;;;;5014790;28;20026;-62
2021/09/23 02:37:36;;;;;;;6.05;3.10;;;20.70;53.80;;;;;;5014942;28;20478;-61
2021/09/23 02:40:04;;;;;;;6.68;3.05;;;20.70;53.80;;;;;;5014067;28;20034;-61
2021/09/23 02:42:29;;;;;;;5.55;2.97;;;20.70;53.80;;;;;;5014729;28;20425;-61
2021/09/23 02:44:55;;;;;;;5.55;2.70;;;20.70;53.70;;;;;;5014844;28;20026;-61
2021/09/23 02:47:22;;;;;;;6.13;3.08;;;20.70;53.80;;;;;;5014867;28;20057;-61
2021/09/23 02:49:49;;;;;;;5.47;3.00;;;20.70;53.70;;;;;;5014666;28;20025;-61
2021/09/23 02:52:15;;;;;;;5.82;2.75;;;20.70;53.70;;;;;;5014723;28;20029;-61
2021/09/23 02:54:41;;;;;;;6.07;2.95;;;20.70;53.80;;;;;;5014663;28;20022;-61
2021/09/23 02:57:07;;;;;;;6.38;3.20;;;20.70;53.70;;;;;;5014522;28;20026;-61
2021/09/23 02:59:32;;;;;;;5.93;3.25;;;20.70;53.70;;;;;;5014593;28;20026;-61
2021/09/23 03:01:58;;;;;;;6.63;3.00;;;20.70;53.70;;;;;;5013109;28;20068;-61
2021/09/23 03:04:23;;;;;;;7.15;3.78;;;20.70;53.70;;;;;;5014440;28;20061;-61
2021/09/23 03:06:49;;;;;;;5.90;2.90;;;20.70;53.80;;;;;;5014653;28;20085;-61
2021/09/23 03:09:15;;;;;;;6.30;2.83;;;20.60;53.80;;;;;;5014311;28;20499;-61
2021/09/23 03:11:42;;;;;;;6.30;3.03;;;20.60;53.80;;;;;;5014363;28;20033;-61
2021/09/23 03:14:08;;;;;;;6.95;3.20;;;20.60;53.80;;;;;;5014352;28;20033;-61
2021/09/23 03:16:33;;;;;;;5.70;2.90;;;20.70;53.80;;;;;;5014382;28;20026;-61
2021/09/23 03:18:59;;;;;;;7.25;3.00;;;20.60;53.80;;;;;;5014159;28;20470;-61
2021/09/23 03:21:24;;;;;;;5.75;2.67;;;20.60;53.80;;;;;;5014098;28;20076;-61
2021/09/23 03:23:50;;;;;;;5.45;2.97;;;20.60;53.80;;;;;;5014096;28;20038;-61
2021/09/23 03:26:16;;;;;;;6.07;2.85;;;20.60;53.80;;;;;;5014044;28;20030;-61
2021/09/23 03:28:41;;;;;;;5.47;2.80;;;20.60;53.80;;;;;;5014110;28;20033;-61
2021/09/23 03:31:07;;;;;;;6.45;3.05;;;20.60;53.80;;;;;;5014019;28;20029;-61
2021/09/23 03:33:33;;;;;;;5.95;2.90;;;20.60;53.80;;;;;;5013896;28;20109;-61
2021/09/23 03:35:59;;;;;;;6.82;3.00;;;20.60;53.80;;;;;;5013859;28;20105;-61
2021/09/23 03:38:25;;;;;;;6.65;3.30;;;20.60;53.80;;;;;;5013909;28;20113;-61
2021/09/23 03:40:50;;;;;;;5.28;2.33;;;20.50;53.80;;;;;;5013765;28;20469;-61
2021/09/23 03:43:17;;;;;;;6.35;3.08;;;20.60;53.80;;;;;;5013772;28;20042;-61
2021/09/23 03:45:45;;;;;;;6.40;3.05;;;20.60;53.80;;;;;;5013757;28;20619;-61
2021/09/23 03:48:11;;;;;;;5.75;3.10;;;20.60;53.80;;;;;;5013494;28;20053;-61
2021/09/23 03:50:37;;;;;;;6.25;2.70;;;20.50;53.90;;;;;;5013547;28;20528;-61
2021/09/23 03:53:03;;;;;;;5.82;2.95;;;20.50;53.90;;;;;;5013445;28;20030;-61
2021/09/23 03:55:28;;;;;;;6.53;2.85;;;20.50;53.80;;;;;;5013543;28;20391;-61
2021/09/23 03:57:54;;;;;;;6.32;3.15;;;20.50;53.80;;;;;;5013569;28;20072;-61
2021/09/23 04:00:23;;;;;;;4.45;2.47;;;20.50;53.90;;;;;;5013560;28;20053;-61
2021/09/23 04:02:49;;;;;;;5.65;2.85;;;20.50;53.90;;;;;;5013381;28;20041;-61
2021/09/23 04:05:15;;;;;;;6.57;2.85;;;20.50;53.90;;;;;;5013404;28;20488;-61
2021/09/23 04:07:41;;;;;;;5.97;3.10;;;20.50;53.80;;;;;;5012147;28;20103;-61
2021/09/23 04:10:08;;;;;;;5.03;2.42;;;20.50;53.90;;;;;;5013422;28;20026;-61
2021/09/23 04:12:34;;;;;;;6.20;2.90;;;20.50;53.90;;;;;;5013618;28;20030;-61
2021/09/23 04:15:00;;;;;;;4.90;2.50;;;20.50;53.90;;;;;;5013339;28;20029;-61
2021/09/23 04:17:25;;;;;;;5.38;2.33;;;20.50;53.80;;;;;;5013416;28;20022;-61
2021/09/23 04:19:51;;;;;;;6.78;3.00;;;20.50;53.80;;;;;;5013392;28;20538;-61
2021/09/23 04:22:17;;;;;;;5.35;2.47;;;20.50;53.80;;;;;;5013176;28;20029;-61
2021/09/23 04:24:43;;;;;;;10.30;3.83;;;20.50;53.80;;;;;;5013215;28;20159;-61
2021/09/23 04:27:09;;;;;;;6.10;2.63;;;20.50;53.80;;;;;;5011878;28;20112;-61
2021/09/23 04:29:34;;;;;;;6.00;3.08;;;20.50;53.80;;;;;;5013146;28;20041;-61
2021/09/23 04:32:00;;;;;;;5.25;2.50;;;20.50;53.80;;;;;;5012959;28;20030;-61
2021/09/23 04:34:26;;;;;;;5.35;2.50;;;20.60;53.70;;;;;;5013069;28;20109;-61
2021/09/23 04:36:52;;;;;;;7.13;3.15;;;20.60;53.70;;;;;;5013008;28;20029;-61
2021/09/23 04:39:18;;;;;;;5.57;2.60;;;20.60;53.70;;;;;;5013033;28;20108;-61
2021/09/23 04:41:44;;;;;;;5.72;2.75;;;20.60;53.70;;;;;;5012927;28;20072;-61
2021/09/23 04:44:10;;;;;;;5.93;3.38;;;20.60;53.70;;;;;;5013047;28;20050;-61
2021/09/23 04:46:35;;;;;;;5.50;2.78;;;20.60;53.70;;;;;;5013118;28;20057;-61
2021/09/23 04:49:01;;;;;;;5.05;2.58;;;20.60;53.70;;;;;;5012776;28;20393;-61
2021/09/23 04:51:27;;;;;;;6.03;3.22;;;20.60;53.70;;;;;;5012988;28;20065;-61
2021/09/23 04:53:54;;;;;;;4.65;2.47;;;20.60;53.70;;;;;;5012919;28;20034;-61
2021/09/23 04:56:20;;;;;;;5.45;2.70;;;20.60;53.70;;;;;;5012938;28;20022;-61
2021/09/23 04:58:46;;;;;;;5.22;2.70;;;20.60;53.70;;;;;;5012871;28;20376;-61
2021/09/23 05:01:11;;;;;;;6.53;2.83;;;20.60;53.70;;;;;;5011572;28;20095;-61
2021/09/23 05:03:37;;;;;;;6.18;2.72;;;20.50;53.70;;;;;;5014000;28;20034;-61
2021/09/23 05:06:02;;;;;;;5.65;2.60;;;20.50;53.80;;;;;;5015398;28;20026;-61
2021/09/23 05:08:28;;;;;;;5.93;2.80;;;20.60;53.70;;;;;;5016602;28;20030;-61
2021/09/23 05:10:53;;;;;;;5.55;2.80;;;20.60;53.70;;;;;;5016591;28;20105;-61
2021/09/23 05:13:19;;;;;;;6.40;3.00;;;20.60;53.70;;;;;;5016548;28;20109;-61
2021/09/23 05:15:45;;;;;;;8.75;2.97;;;20.60;53.70;;;;;;5016506;28;20053;-61
2021/09/23 05:18:11;;;;;;;6.70;2.65;;;20.60;53.70;;;;;;5016307;28;20149;-61
2021/09/23 05:20:37;;;;;;;6.07;3.03;;;20.60;53.70;;;;;;5016352;28;20037;-61
2021/09/23 05:23:03;;;;;;;6.13;2.78;;;20.60;53.70;;;;;;5016267;28;20046;-61
2021/09/23 05:25:28;;;;;;;6.10;2.80;;;20.60;53.70;;;;;;5016291;28;20026;-61
2021/09/23 05:27:55;;;;;;;5.13;2.63;;;20.60;53.70;;;;;;5016177;28;20057;-61
2021/09/23 05:30:20;;;;;;;6.28;2.80;;;20.60;53.70;;;;;;5016183;28;20032;-61
2021/09/23 05:32:46;;;;;;;5.47;2.63;;;20.60;53.70;;;;;;5016234;28;20033;-61
2021/09/23 05:35:12;;;;;;;5.15;2.70;;;20.60;53.70;;;;;;5016313;28;20033;-61
2021/09/23 05:37:38;;;;;;;4.93;2.40;;;20.60;53.70;;;;;;5016088;28;20021;-61
2021/09/23 05:40:04;;;;;;;4.38;2.00;;;20.70;53.70;;;;;;5016076;28;20025;-61
2021/09/23 05:42:30;;;;;;;6.95;2.97;;;20.60;53.70;;;;;;5015900;28;20512;-61
2021/09/23 05:44:55;;;;;;;5.60;2.90;;;20.60;53.70;;;;;;5015916;28;20025;-62
2021/09/23 05:47:21;;;;;;;5.72;2.53;;;20.60;53.70;;;;;;5015690;28;20402;-61
2021/09/23 05:49:46;;;;;;;6.45;3.03;;;20.70;53.70;;;;;;5015828;28;20026;-61
2021/09/23 05:52:12;;;;;;;5.40;2.58;;;20.70;53.60;;;;;;5015772;28;20473;-61
2021/09/23 05:54:37;;;;;;;5.78;2.22;;;20.70;53.70;;;;;;5015901;28;20363;-61
2021/09/23 05:57:03;;;;;;;6.20;2.70;;;20.70;53.60;;;;;;5015578;28;20363;-61
2021/09/23 05:59:29;;;;;;;5.57;2.80;;;20.70;53.60;;;;;;5015849;28;20026;-61
2021/09/23 06:01:55;;;;;;;7.38;2.60;;;20.70;53.70;;;;;;5015507;28;20030;-61
2021/09/23 06:04:21;;;;;;;6.25;2.42;;;20.70;53.70;;;;;;5015600;28;20382;-61
2021/09/23 06:06:47;;;;;;;4.30;2.17;;;20.70;53.70;;;;;;5015635;28;20100;-61
2021/09/23 06:09:13;;;;;;;6.55;2.92;;;20.70;53.60;;;;;;5015491;28;20539;-61
2021/09/23 06:11:39;;;;;;;6.40;2.50;;;20.70;53.60;;;;;;5015368;28;20030;-61
2021/09/23 06:14:08;;;;;;;6.03;2.22;;;20.70;53.60;;;;;;5015127;28;20018;-61
2021/09/23 06:16:34;;;;;;;5.30;2.60;;;20.70;53.70;;;;;;5015404;28;20108;-61
2021/09/23 06:19:01;;;;;;;6.25;2.58;;;20.70;53.70;;;;;;5015335;28;20026;-61
2021/09/23 06:21:27;;;;;;;6.68;2.72;;;20.70;53.70;;;;;;5015166;28;20097;-61
2021/09/23 06:23:53;;;;;;;5.57;2.50;;;20.70;53.60;;;;;;5015101;28;20122;-61
2021/09/23 06:26:19;;;;;;;6.00;2.50;;;20.70;53.60;;;;;;5015061;28;20022;-61
2021/09/23 06:28:45;;;;;;;4.88;2.63;;;20.70;53.60;;;;;;5006479;28;20030;-61
2021/09/23 06:31:11;;;;;;;5.22;2.65;;;20.70;53.60;;;;;;4999803;28;20093;-61
2021/09/23 06:33:37;;;;;;;4.22;2.17;;;20.80;53.60;;;;;;5000596;28;20462;-62
2021/09/23 06:36:03;;;;;;;4.97;2.50;;;20.80;53.50;;;;;;5014083;28;20026;-61
2021/09/23 06:38:28;;;;;;;5.30;2.42;;;20.80;53.50;;;;;;5005809;28;20080;-61
2021/09/23 06:40:56;;;;;;;5.60;2.67;;;20.80;53.50;;;;;;5013273;28;20072;-61
2021/09/23 06:43:22;;;;;;;5.93;2.63;;;20.80;53.50;;;;;;5003698;28;20067;-61
2021/09/23 06:45:49;;;;;;;6.97;2.47;;;20.90;53.50;;;;;;5009626;28;20029;-61
2021/09/23 06:48:14;;;;;;;3.80;2.08;;;20.90;53.40;;;;;;5008501;28;20050;-61
2021/09/23 06:50:40;;;;;;;6.38;2.42;;;20.90;53.40;;;;;;5005870;28;20041;-61
2021/09/23 06:53:05;;;;;;;5.25;2.35;;;20.90;53.40;;;;;;5010166;28;20488;-61
2021/09/23 06:55:31;;;;;;;6.55;2.45;;;21.00;53.40;;;;;;5013898;28;20044;-62
2021/09/23 06:57:57;;;;;;;9.68;2.55;;;21.00;53.40;;;;;;5011184;28;20133;-61
2021/09/23 07:00:23;;;;;;;5.32;2.10;;;21.00;53.40;;;;;;5008080;28;20030;-62
2021/09/23 07:02:48;;;;;;;4.70;2.00;;;21.00;53.30;;;;;;5012069;28;20489;-61
2021/09/23 07:05:14;;;;;;;5.47;2.47;;;21.00;53.30;;;;;;5008970;28;20080;-61
2021/09/23 07:07:40;;;;;;;4.75;2.20;;;21.00;53.30;;;;;;5014258;28;20509;-60
2021/09/23 07:10:06;;;;;;;5.03;2.00;;;21.00;53.30;;;;;;5010100;28;20121;-62
2021/09/23 07:12:32;;;;;;;5.22;2.42;;;21.00;53.40;;;;;;5012536;28;20485;-63
2021/09/23 07:14:58;;;;;;;4.88;2.38;;;21.00;53.40;;;;;;5011474;28;20496;-62
2021/09/23 07:17:24;;;;;;;7.28;2.60;;;21.10;53.30;;;;;;5011832;28;20026;-61
2021/09/23 07:19:49;;;;;;;6.95;2.83;;;21.10;53.20;;;;;;5011800;28;20121;-62
2021/09/23 07:22:15;;;;;;;4.65;2.50;;;21.10;53.30;;;;;;5004468;28;20038;-59
2021/09/23 07:24:41;;;;;;;6.07;2.30;;;21.10;53.30;;;;;;5008996;28;20061;-59
2021/09/23 07:27:07;;;;;;;5.90;2.42;;;21.10;53.30;;;;;;5011813;28;20046;-61
2021/09/23 07:29:33;;;;;;;4.97;2.00;;;21.20;53.20;;;;;;5011487;28;20037;-60
2021/09/23 07:31:59;;;;;;;9.48;3.05;;;21.20;53.30;;;;;;5013006;28;20033;-61
2021/09/23 07:34:25;;;;;;;5.43;2.20;;;21.20;53.20;;;;;;5014239;28;20026;-60
2021/09/23 07:36:50;;;;;;;4.47;2.05;;;21.20;53.20;;;;;;5000328;28;20032;-60
2021/09/23 07:39:16;;;;;;;5.22;2.35;;;21.20;53.20;;;;;;5020853;28;20057;-61
2021/09/23 07:41:44;;;;;;;5.72;2.30;;;21.20;53.20;;;;;;5029375;28;20029;-60
2021/09/23 07:44:12;;;;;;;5.20;2.38;;;21.30;53.20;;;;;;5011666;28;20034;-61
2021/09/23 07:46:38;;;;;;;4.05;1.95;;;21.30;53.20;;;;;;5012658;28;20037;-61
2021/09/23 07:49:05;;;;;;;5.03;2.22;;;21.30;53.20;;;;;;5011504;28;20048;-60
2021/09/23 07:51:31;;;;;;;5.72;1.90;;;21.30;53.20;;;;;;5012303;28;20022;-60
2021/09/23 07:53:56;;;;;;;5.30;2.30;;;21.30;53.20;;;;;;5011956;28;20030;-60
2021/09/23 07:56:22;;;;;;;5.35;2.42;;;21.40;53.20;;;;;;5009887;28;20037;-61
2021/09/23 07:58:48;;;;;;;4.38;1.92;;;21.30;53.20;;;;;;5012376;28;20432;-60
2021/09/23 08:01:13;;;;;;;4.40;1.98;;;21.40;53.30;;;;;;5011848;28;20160;-61
2021/09/23 08:03:39;;;;;;;5.90;2.70;;;21.30;53.30;;;;;;5012248;28;20045;-60
2021/09/23 08:06:04;;;;;;;5.07;2.22;;;21.40;53.30;;;;;;5009650;28;20079;-61
2021/09/23 08:08:30;;;;;;;4.88;2.10;;;21.40;53.30;;;;;;5005470;28;20075;-61
2021/09/23 08:10:55;;;;;;;4.72;2.35;;;21.40;53.30;;;;;;5011241;28;20026;-61
2021/09/23 08:13:21;;;;;;;5.65;2.15;;;21.40;53.40;;;;;;5011823;28;20397;-61
2021/09/23 08:15:46;;;;;;;3.70;1.77;;;21.40;53.40;;;;;;5012109;28;20484;-60
2021/09/23 08:18:12;;;;;;;5.28;2.20;;;21.40;53.40;;;;;;5012294;28;20100;-60
2021/09/23 08:20:39;;;;;;;4.88;2.03;;;21.50;53.40;;;;;;5010639;28;20038;-61
2021/09/23 08:23:05;;;;;;;4.40;2.20;;;21.50;53.40;;;;;;5009516;28;20057;-61
2021/09/23 08:25:32;;;;;;;4.90;2.17;;;21.50;53.40;;;;;;5011890;28;20022;-60
2021/09/23 08:27:58;;;;;;;4.18;1.83;;;21.50;53.40;;;;;;5011926;28;20034;-60
2021/09/23 08:30:24;;;;;;;3.60;2.05;;;21.50;53.40;;;;;;5010779;28;20022;-60
2021/09/23 08:32:51;;;;;;;6.45;2.42;;;21.50;53.40;;;;;;5010554;28;20495;-60
2021/09/23 08:35:17;;;;;;;5.60;2.13;;;21.50;53.40;;;;;;5012127;28;20021;-60
2021/09/23 08:37:43;;;;;;;5.40;1.98;;;21.50;53.40;;;;;;5012242;28;20033;-61
2021/09/23 08:40:11;;;;;;;5.20;2.10;;;21.50;53.40;;;;;;5015553;28;20038;-60
2021/09/23 08:42:39;;;;;;;4.55;1.83;;;21.50;53.40;;;;;;5015143;28;20436;-60
2021/09/23 08:45:06;;;;;;;4.45;1.80;;;21.50;53.40;;;;;;5010018;28;20026;-60
2021/09/23 08:47:33;;;;;;;19.70;2.65;;;21.50;53.40;;;;;;5015093;28;20038;-59
2021/09/23 08:49:59;;;;;;;4.38;1.60;;;21.50;53.40;;;;;;5014603;28;20025;-60
2021/09/23 08:52:25;;;;;;;3.63;1.63;;;21.50;53.40;;;;;;5015229;28;20105;-60
2021/09/23 08:54:50;;;;;;;4.57;2.05;;;21.60;53.40;;;;;;5015681;28;20116;-60
2021/09/23 08:57:16;;;;;;;5.30;1.90;;;21.50;53.50;;;;;;5015893;28;20476;-60
2021/09/23 08:59:41;;;;;;;6.40;2.10;;;21.60;53.40;;;;;;5014140;28;20152;-60
2021/09/23 09:02:25;;;;;;;3.92;1.65;;;21.60;53.40;;;;;;5014784;28;20034;-60
2021/09/23 09:04:56;;;;;;;3.92;1.88;;;21.60;53.40;;;;;;5011518;28;20096;-59
2021/09/23 09:07:28;;;;;;;3.83;1.77;;;21.60;53.40;;;;;;5014588;28;20041;-60
2021/09/23 09:10:05;;;;;;;4.93;1.73;;;21.60;53.40;;;;;;5014874;28;20132;-60
2021/09/23 09:12:32;;;;;;;4.22;2.03;;;21.60;53.40;;;;;;5011327;28;20030;-60
2021/09/23 09:14:59;;;;;;;4.80;1.80;;;21.70;53.40;;;;;;5015118;28;20030;-60
2021/09/23 09:17:25;;;;;;;4.07;1.88;;;21.70;53.40;;;;;;5015357;28;20034;-60
2021/09/23 09:20:02;;;;;;;4.75;1.90;;;21.70;53.40;;;;;;5013438;28;20228;-60
2021/09/23 09:22:30;;;;;;;4.25;1.83;;;21.70;53.40;;;;;;5015602;28;20042;-60
2021/09/23 09:24:59;;;;;;;4.00;1.73;;;21.80;53.30;;;;;;5013856;28;20033;-61
2021/09/23 09:27:39;;;;;;;4.63;2.13;;;21.70;53.30;;;;;;5014323;28;20115;-59
2021/09/23 09:30:11;;;;;;;3.15;1.55;;;21.80;53.30;;;;;;5014469;28;20087;-59
2021/09/23 09:32:40;;;;;;;4.72;2.10;;;21.80;53.30;;;;;;5013511;28;20021;-60
2021/09/23 09:35:08;;;;;;;4.38;1.35;;;21.80;53.30;;;;;;5013400;28;20022;-60
2021/09/23 09:37:33;;;;;;;3.70;1.40;;;21.80;53.20;;;;;;5014314;28;20402;-60
2021/09/23 09:40:00;;;;;;;4.45;1.77;;;21.80;53.20;;;;;;5014305;28;20029;-60
2021/09/23 09:42:29;;;;;;;3.53;1.70;;;21.90;53.20;;;;;;5013482;28;20030;-59
2021/09/23 09:44:57;;;;;;;5.68;1.63;;;21.90;53.20;;;;;;5012482;28;20478;-60
2021/09/23 09:47:31;;;;;;;3.67;1.55;;;22.00;53.10;;;;;;5014624;28;20123;-61
2021/09/23 09:49:57;;;;;;;3.63;1.40;;;21.90;53.20;;;;;;5011657;28;20047;-59
2021/09/23 09:52:30;;;;;;;4.20;1.52;;;22.00;53.10;;;;;;5014145;28;20035;-60
2021/09/23 09:55:06;;;;;;;2.72;1.20;;;22.00;53.10;;;;;;5012186;28;20034;-60
2021/09/23 09:57:32;;;;;;;3.47;1.60;;;22.00;53.00;;;;;;5014794;28;20458;-60
2021/09/23 09:59:59;;;;;;;4.30;1.70;;;22.10;52.90;;;;;;5014189;28;20045;-60
2021/09/23 10:02:27;;;;;;;4.68;1.92;;;22.00;53.00;;;;;;5014304;28;20117;-60
2021/09/23 10:04:58;;;;;;;3.67;1.50;;;22.00;53.00;;;;;;5013576;28;20587;-60
2021/09/23 10:07:26;;;;;;;3.75;1.45;;;22.10;53.00;;;;;;5012967;28;20543;-60
2021/09/23 10:09:53;;;;;;;3.58;1.40;;;22.10;53.10;;;;;;5014004;28;20026;-60
2021/09/23 10:12:20;;;;;;;4.68;1.67;;;22.10;53.00;;;;;;5013741;28;20029;-61
2021/09/23 10:14:46;;;;;;;3.22;1.52;;;22.10;52.90;;;;;;5014704;28;20378;-60
2021/09/23 10:17:13;;;;;;;3.85;1.10;;;22.10;53.00;;;;;;5011954;28;20033;-61
2021/09/23 10:19:40;;;;;;;4.68;1.52;;;22.10;53.00;;;;;;4996676;28;20034;-61
2021/09/23 10:22:08;;;;;;;5.35;1.60;;;22.20;53.00;;;;;;5002779;28;20109;-61
2021/09/23 10:24:35;;;;;;;2.97;1.52;;;22.20;53.00;;;;;;5014094;28;20041;-60
2021/09/23 10:27:02;;;;;;;4.20;1.80;;;22.20;53.00;;;;;;5010682;28;20068;-60
2021/09/23 10:29:28;;;;;;;3.92;1.90;;;22.20;53.00;;;;;;5008750;28;20363;-62
2021/09/23 10:31:58;;;;;;;4.05;1.65;;;22.20;52.90;;;;;;5014203;28;20469;-60
2021/09/23 10:34:24;;;;;;;3.80;1.73;;;22.30;52.90;;;;;;5013532;28;20030;-60
2021/09/23 10:36:50;;;;;;;4.90;1.70;;;22.30;52.70;;;;;;5013871;28;20037;-61
2021/09/23 10:39:16;;;;;;;5.45;1.73;;;22.30;52.70;;;;;;5013211;28;20485;-59
2021/09/23 10:41:44;;;;;;;3.92;1.85;;;22.40;52.60;;;;;;5013954;28;20034;-60
2021/09/23 10:44:11;;;;;;;4.25;1.40;;;22.40;52.60;;;;;;5004958;28;20038;-60
2021/09/23 10:46:37;;;;;;;3.00;1.55;;;22.50;52.50;;;;;;4995706;28;20066;-60
2021/09/23 10:49:04;;;;;;;3.65;1.48;;;22.50;52.40;;;;;;5001446;28;20164;-60
2021/09/23 10:51:32;;;;;;;4.13;1.88;;;22.60;52.30;;;;;;5010809;28;20570;-60
2021/09/23 10:53:59;;;;;;;3.92;1.48;;;22.60;52.40;;;;;;5013724;28;20040;-60
2021/09/23 10:56:26;;;;;;;2.63;1.45;;;22.60;52.30;;;;;;5013365;28;20049;-60
2021/09/23 10:58:53;;;;;;;3.83;2.05;;;22.60;52.40;;;;;;5012032;28;20358;-60
2021/09/23 11:01:25;;;;;;;3.88;1.52;;;22.70;52.30;;;;;;5012028;28;20112;-59
2021/09/23 11:03:53;;;;;;;4.43;1.65;;;22.70;52.20;;;;;;5014294;28;20049;-61
2021/09/23 11:06:18;;;;;;;2.85;1.40;;;22.80;52.10;;;;;;5012814;28;20064;-60
2021/09/23 11:08:47;;;;;;;3.63;1.60;;;22.80;52.10;;;;;;5012717;28;20489;-60
2021/09/23 11:11:13;;;;;;;4.25;1.60;;;22.90;52.00;;;;;;5012654;28;20036;-60
2021/09/23 11:13:40;;;;;;;4.40;1.65;;;22.90;52.00;;;;;;5013415;28;20458;-60
2021/09/23 11:16:10;;;;;;;3.83;1.58;;;22.90;52.00;;;;;;5003996;28;20057;-60
2021/09/23 11:18:39;;;;;;;3.45;1.30;;;23.00;51.90;;;;;;5008510;28;20504;-60
2021/09/23 11:21:07;;;;;;;3.70;1.30;;;23.00;52.00;;;;;;5002982;28;20025;-60
2021/09/23 11:23:35;;;;;;;3.63;1.52;;;23.00;51.90;;;;;;5011560;28;20098;-59
2021/09/23 11:26:02;;;;;;;2.83;1.48;;;23.00;51.90;;;;;;5012859;28;20045;-60
2021/09/23 11:28:29;;;;;;;3.10;1.40;;;23.00;51.90;;;;;;5012926;28;20501;-61
2021/09/23 11:30:56;;;;;;;3.50;1.58;;;23.10;51.80;;;;;;5009659;28;20038;-60
2021/09/23 11:33:23;;;;;;;3.22;1.50;;;23.20;51.70;;;;;;5008032;28;20100;-61
2021/09/23 11:35:51;;;;;;;3.28;1.60;;;23.20;51.70;;;;;;4993703;28;20386;-61
2021/09/23 11:38:19;;;;;;;3.13;1.30;;;23.30;51.50;;;;;;5012676;28;20037;-61
2021/09/23 11:40:51;;;;;;;3.20;1.60;;;23.30;51.50;;;;;;5011491;28;20022;-61
2021/09/23 11:43:21;;;;;;;4.57;1.80;;;23.40;51.40;;;;;;5012278;28;20045;-61
2021/09/23 11:45:53;;;;;;;2.70;1.63;;;23.50;51.20;;;;;;5009313;28;20076;-61
2021/09/23 11:48:24;;;;;;;5.18;1.67;;;23.50;51.10;;;;;;5012778;28;20041;-61
2021/09/23 11:51:05;;;;;;;6.50;1.80;;;23.60;51.00;;;;;;4993647;28;20057;-60
2021/09/23 11:53:34;;;;;;;3.53;1.67;;;23.70;50.70;;;;;;5012563;28;20086;-60
2021/09/23 11:56:09;;;;;;;3.60;1.65;;;23.70;50.80;;;;;;5012139;28;20079;-61
2021/09/23 11:58:38;;;;;;;3.40;1.60;;;23.60;51.00;;;;;;5012350;28;20050;-60
2021/09/23 12:01:05;;;;;;;4.63;2.05;;;23.60;51.20;;;;;;5011654;28;20029;-62
2021/09/23 12:03:39;;;;;;;2.92;1.25;;;23.70;50.90;;;;;;5008175;28;20037;-62
2021/09/23 12:06:11;;;;;;;3.85;1.25;;;23.70;50.90;;;;;;5011283;28;20029;-62
2021/09/23 12:08:37;;;;;;;4.15;1.73;;;23.50;51.30;;;;;;5011299;28;20034;-61
2021/09/23 12:11:08;;;;;;;4.72;1.90;;;23.50;51.60;;;;;;5009751;28;20030;-61
2021/09/23 12:13:44;;;;;;;4.90;1.70;;;23.50;51.50;;;;;;5010262;28;20022;-61
2021/09/23 12:16:29;;;;;;;3.63;1.40;;;23.60;51.30;;;;;;5011493;28;20548;-61
2021/09/23 12:18:55;;;;;;;4.10;1.60;;;23.50;51.50;;;;;;5012558;28;20033;-62
2021/09/23 12:21:23;;;;;;;3.53;1.50;;;23.60;51.50;;;;;;5012441;28;20496;-61
2021/09/23 12:23:53;;;;;;;3.90;1.50;;;23.50;51.60;;;;;;5012889;28;20084;-61
2021/09/23 12:26:24;;;;;;;3.55;1.60;;;23.50;51.70;;;;;;5013056;28;20041;-61
2021/09/23 12:28:55;;;;;;;6.90;1.60;;;23.50;51.70;;;;;;5013070;28;20489;-61
2021/09/23 12:31:58;;;;;;;3.60;1.45;;;23.50;51.70;;;;;;5012955;28;20036;-61
2021/09/23 12:34:25;;;;;;;3.35;1.40;;;23.50;51.60;;;;;;5011770;28;20028;-61
2021/09/23 12:37:03;;;;;;;4.10;1.45;;;23.50;51.50;;;;;;5009538;28;20033;-61
2021/09/23 12:39:43;;;;;;;4.75;1.50;;;23.60;51.40;;;;;;4995455;28;20033;-61
2021/09/23 12:42:10;;;;;;;3.53;1.40;;;23.70;51.40;;;;;;5011331;28;20461;-61
2021/09/23 12:45:01;;;;;;;6.75;1.83;;;23.70;51.40;;;;;;4996301;28;20038;-62
2021/09/23 12:47:27;;;;;;;2.58;1.35;;;23.60;51.50;;;;;;5000179;28;20065;-61
2021/09/23 12:49:53;;;;;;;2.97;1.27;;;23.60;51.50;;;;;;5012405;28;20054;-61